KMVE/MVE METAR and TAF weather

Enter ICAO airport designator
Station Type Date Time Source
KMVE METAR 2019/07/15 20:35 UTC NOAA

KMVE 152035Z AUTO 00000KT 10SM SCT040 33/22 A2980 RMK AO2 LTG DSNT N


Station Type Date Time Source
KMVE Decoded METAR 2019/07/15 20:35 UTC NOAA

Montevideo, Montevideo-Chippewa County Airport, MN, United States (KMVE) 44-58N 095-43W
Jul 15, 2019 - 04:35 PM EDT / 2019.07.15 2035 UTC
Wind: Calm:0
Visibility: 10 mile(s):0
Sky conditions: partly cloudy
Weather: Lightning observed
Temperature: 91 F (33 C)
Heat index: 97.5 F (36.4 C):1
Dew Point: 71 F (22 C)
Relative Humidity: 52%
Pressure (altimeter): 29.8 in. Hg (1009 hPa)
ob: KMVE 152035Z AUTO 00000KT 10SM SCT040 33/22 A2980 RMK AO2 LTG DSNT N
cycle: 20

Station Type Date Time Source
KMVE TAF UTC NOAA

Error!

Example: see airport list